Time;durP1;ratioP1;P1;durP2;ratioP2;P2;SDS_P1;SDS_P2;PMS_P1;PMS_P2;Temp;Humidity;BMP_temperature;BMP_pressure;BME280_temperature;BME280_humidity;BME280_pressure;Samples;Min_cycle;Max_cycle;Signal;HPM_P1;HPM_P2
2022/10/09 00:02:32;;;;;;;2.05;1.95;;;;;;;19.54;58.18;97712.00;10508917;28;20460;-54
2022/10/09 00:07:53;;;;;;;2.45;2.25;;;;;;;19.54;58.21;97712.00;10497921;28;20048;-54
2022/10/09 00:13:12;;;;;;;2.13;1.92;;;;;;;19.54;58.15;97713.88;10502559;28;20048;-54
2022/10/09 00:18:32;;;;;;;2.33;1.92;;;;;;;19.52;58.27;97711.50;10524629;28;20056;-54
2022/10/09 00:23:55;;;;;;;1.90;1.80;;;;;;;19.53;58.18;97712.28;10494175;28;20052;-54
2022/10/09 00:29:14;;;;;;;1.92;1.77;;;;;;;19.51;58.17;97709.88;10511551;28;20052;-52
2022/10/09 00:34:34;;;;;;;2.08;1.88;;;;;;;19.50;58.15;97713.72;10513529;28;20048;-53
2022/10/09 00:39:53;;;;;;;2.17;1.98;;;;;;;19.49;58.27;97717.50;10517721;28;20079;-53
2022/10/09 00:45:19;;;;;;;3.17;2.00;;;;;;;19.49;58.24;97724.81;10521274;28;20047;-54
2022/10/09 00:50:42;;;;;;;2.00;1.80;;;;;;;19.48;58.33;97718.63;10508371;28;20055;-54
2022/10/09 00:56:02;;;;;;;2.08;1.85;;;;;;;19.47;58.26;97710.81;10501284;28;20045;-54
2022/10/09 01:01:21;;;;;;;2.25;2.05;;;;;;;19.47;58.34;97719.69;10529020;28;20060;-53
2022/10/09 01:06:54;;;;;;;1.83;1.63;;;;;;;19.45;58.30;97713.00;10503663;28;20444;-54
2022/10/09 01:12:32;;;;;;;1.80;1.70;;;;;;;19.46;58.25;97717.28;10488719;28;20056;-54
2022/10/09 01:18:32;;;;;;;1.98;1.88;;;;;;;19.44;58.31;97708.69;10532870;28;20048;-53
2022/10/09 01:24:21;;;;;;;2.15;1.80;;;;;;;19.44;58.31;97708.69;10504224;28;20052;-54
2022/10/09 01:30:03;;;;;;;2.65;1.80;;;;;;;19.44;58.24;97716.78;10514893;28;20064;-53
2022/10/09 01:35:22;;;;;;;2.03;1.55;;;;;;;19.42;58.19;97717.09;10529798;28;20044;-54
2022/10/09 01:40:42;;;;;;;1.80;1.70;;;;;;;19.42;58.21;97716.28;10494250;28;20060;-53
2022/10/09 01:46:20;;;;;;;1.98;1.85;;;;;;;19.41;58.15;97726.31;10520468;28;20048;-53
2022/10/09 01:51:58;;;;;;;1.52;1.42;;;;;;;19.41;58.19;97722.81;10514329;28;20499;-54
2022/10/09 01:57:22;;;;;;;1.92;1.73;;;;;;;19.39;58.25;97720.41;10519511;28;20052;-54
2022/10/09 02:02:42;;;;;;;1.67;1.58;;;;;;;19.39;58.22;97733.13;10540077;28;20093;-54
2022/10/09 02:08:02;;;;;;;1.50;1.40;;;;;;;19.39;58.14;97728.50;10511775;28;20083;-54
2022/10/09 02:13:22;;;;;;;1.70;1.60;;;;;;;19.38;58.04;97732.31;10530705;28;20040;-54
2022/10/09 02:18:56;;;;;;;1.70;1.60;;;;;;;19.36;58.06;97729.09;10524810;28;20048;-54
2022/10/09 02:24:20;;;;;;;1.90;1.55;;;;;;;19.36;58.19;97734.50;10519078;28;20158;-54
2022/10/09 02:29:41;;;;;;;1.95;1.75;;;;;;;19.35;58.10;97739.13;10510601;28;20083;-54
2022/10/09 02:35:01;;;;;;;1.60;1.50;;;;;;;19.34;58.08;97740.22;10501489;28;20045;-54
2022/10/09 02:40:20;;;;;;;1.67;1.58;;;;;;;19.35;58.06;97743.72;10524943;28;20059;-53
2022/10/09 02:45:40;;;;;;;1.67;1.58;;;;;;;19.34;58.17;97744.81;10507695;28;20056;-54
2022/10/09 02:51:00;;;;;;;1.80;1.63;;;;;;;19.33;58.13;97748.63;10530257;28;20043;-54
2022/10/09 02:56:20;;;;;;;2.22;1.70;;;;;;;19.32;58.19;97750.50;10513420;28;20059;-54
2022/10/09 03:01:39;;;;;;;1.70;1.52;;;;;;;19.31;58.19;97745.44;10524691;28;20064;-54
2022/10/09 03:06:59;;;;;;;1.55;1.45;;;;;;;19.30;58.14;97744.59;10500648;28;20044;-53
2022/10/09 03:12:20;;;;;;;1.80;1.70;;;;;;;19.30;58.19;97741.91;10502411;28;20051;-53
2022/10/09 03:17:40;;;;;;;1.50;1.38;;;;;;;19.29;58.16;97745.72;10500930;28;20519;-54
2022/10/09 03:22:59;;;;;;;1.60;1.48;;;;;;;19.28;58.17;97743.31;10498745;28;20052;-54
2022/10/09 03:28:18;;;;;;;2.00;1.60;;;;;;;19.28;58.21;97751.41;10515864;28;20051;-54
2022/10/09 03:33:38;;;;;;;1.50;1.40;;;;;;;19.28;58.14;97754.13;10498513;28;20106;-54
2022/10/09 03:38:57;;;;;;;1.50;1.40;;;;;;;19.26;58.32;97754.41;10511990;28;20047;-54
2022/10/09 03:44:16;;;;;;;1.40;1.30;;;;;;;19.26;58.21;97754.41;10519077;28;20056;-53
2022/10/09 03:49:35;;;;;;;1.75;1.60;;;;;;;19.25;58.19;97763.63;10504375;28;20415;-54
2022/10/09 03:54:55;;;;;;;1.40;1.30;;;;;;;19.24;58.17;97761.22;10514494;28;20059;-54
2022/10/09 04:00:14;;;;;;;1.42;1.33;;;;;;;19.24;58.23;97761.22;10500670;28;20052;-54
2022/10/09 04:05:34;;;;;;;1.40;1.30;;;;;;;19.24;58.23;97766.63;10537767;28;20055;-53
2022/10/09 04:10:58;;;;;;;1.38;1.27;;;;;;;19.23;58.34;97779.34;10510802;28;20109;-53
2022/10/09 04:16:17;;;;;;;1.50;1.40;;;;;;;19.22;58.19;97779.63;10533022;28;20126;-54
2022/10/09 04:21:36;;;;;;;1.60;1.50;;;;;;;19.23;58.15;97778.53;10508685;28;20049;-53
2022/10/09 04:26:56;;;;;;;1.30;1.20;;;;;;;19.21;58.23;97775.31;10521763;28;20036;-53
2022/10/09 04:32:15;;;;;;;1.48;1.38;;;;;;;19.19;58.15;97780.22;10507869;28;20075;-53
2022/10/09 04:37:35;;;;;;;1.30;1.20;;;;;;;19.20;58.23;97785.31;10543363;28;20040;-54
2022/10/09 04:42:55;;;;;;;1.30;1.20;;;;;;;19.19;58.21;97791.03;10520918;28;20086;-53
2022/10/09 04:48:14;;;;;;;1.63;1.40;;;;;;;19.19;58.18;97789.13;10519156;28;20123;-53
2022/10/09 04:53:34;;;;;;;1.48;1.38;;;;;;;19.17;58.12;97791.34;10536886;28;20051;-53
2022/10/09 04:58:54;;;;;;;1.33;1.23;;;;;;;19.17;58.28;97789.44;10527084;28;20045;-53
2022/10/09 05:04:13;;;;;;;1.50;1.38;;;;;;;19.17;58.16;97785.94;10506435;28;20106;-54
2022/10/09 05:09:32;;;;;;;1.50;1.40;;;;;;;19.19;58.08;97791.03;10503222;28;20044;-53
2022/10/09 05:14:51;;;;;;;1.20;1.10;;;;;;;19.19;58.05;97799.94;10528565;28;20425;-54
2022/10/09 05:20:10;;;;;;;1.30;1.20;;;;;;;19.20;57.84;97796.13;10533857;28;20470;-54
2022/10/09 05:25:30;;;;;;;1.35;1.25;;;;;;;19.19;57.87;97791.84;10511025;28;20054;-54
2022/10/09 05:30:49;;;;;;;1.20;1.10;;;;;;;19.20;57.83;97788.03;10525413;28;20428;-53
2022/10/09 05:36:09;;;;;;;1.38;1.27;;;;;;;19.20;57.76;97804.22;10509482;28;20058;-54
2022/10/09 05:41:28;;;;;;;1.27;1.20;;;;;;;19.21;57.67;97805.84;10503339;28;20067;-53
2022/10/09 05:46:47;;;;;;;1.20;1.10;;;;;;;19.21;57.67;97805.84;10524220;28;20488;-54
2022/10/09 05:52:07;;;;;;;1.45;1.30;;;;;;;19.22;57.58;97810.13;10541273;28;20462;-54
2022/10/09 05:57:26;;;;;;;1.20;1.10;;;;;;;19.22;57.58;97810.13;10513149;28;20059;-54
2022/10/09 06:02:45;;;;;;;1.35;1.25;;;;;;;19.22;57.58;97810.13;10525859;28;20056;-53
2022/10/09 06:08:05;;;;;;;1.25;1.15;;;;;;;19.22;57.58;97810.13;10518189;28;20098;-53
2022/10/09 06:13:25;;;;;;;1.05;0.98;;;;;;;-146.19;100.00;65364.44;10527486;28;20063;-54
2022/10/09 06:18:46;;;;;;;1.10;1.10;;;;;;;-146.19;100.00;65364.44;10536295;28;20044;-54
2022/10/09 06:24:06;;;;;;;1.30;1.20;;;;;;;-146.19;100.00;65364.44;10502069;28;20123;-54
2022/10/09 06:29:26;;;;;;;1.13;1.02;;;;;;;-146.19;100.00;65364.44;10539272;28;20075;-54
2022/10/09 06:34:45;;;;;;;1.30;1.20;;;;;;;-146.19;100.00;65364.44;10552713;28;20039;-53
2022/10/09 06:40:05;;;;;;;1.30;1.10;;;;;;;-146.19;100.00;65364.44;10531895;28;20048;-54
2022/10/09 06:45:24;;;;;;;1.15;1.10;;;;;;;-146.19;100.00;65364.44;10500762;28;20450;-54
2022/10/09 06:50:43;;;;;;;1.20;1.10;;;;;;;-146.19;100.00;65364.44;10536529;28;20056;-55
2022/10/09 06:56:03;;;;;;;1.55;1.08;;;;;;;-146.19;100.00;65364.44;10518555;28;20499;-53
2022/10/09 07:01:31;;;;;;;1.10;1.00;;;;;;;-146.19;100.00;65364.44;10537596;28;20138;-54
2022/10/09 07:06:50;;;;;;;1.30;1.20;;;;;;;-146.19;100.00;65364.44;10510982;28;20053;-54
2022/10/09 07:12:10;;;;;;;1.15;1.05;;;;;;;-146.19;100.00;65364.44;10506143;28;20059;-54
2022/10/09 07:17:30;;;;;;;3.35;1.90;;;;;;;-146.19;100.00;65364.44;10503345;28;20381;-54
2022/10/09 07:22:49;;;;;;;3.28;1.73;;;;;;;-146.19;100.00;65364.44;10528276;28;20454;-54
2022/10/09 07:28:09;;;;;;;6.07;3.67;;;;;;;-146.19;100.00;65364.44;10508931;28;20056;-54
2022/10/09 07:33:28;;;;;;;13.32;6.88;;;;;;;-146.19;100.00;65364.44;10512563;28;20047;-54
2022/10/09 07:38:53;;;;;;;17.75;9.40;;;;;;;-146.19;100.00;65364.44;10541493;28;20044;-54
2022/10/09 07:44:12;;;;;;;30.40;14.90;;;;;;;-146.19;100.00;65364.44;10509774;28;20518;-54
2022/10/09 07:49:32;;;;;;;19.25;9.98;;;;;;;-146.19;100.00;65364.44;10521023;28;20044;-54
2022/10/09 08:00:22;;;;;;;20.60;10.82;;;;;;;-146.19;100.00;65364.44;8591388;22;20104;-60
2022/10/09 08:05:42;;;;;;;20.65;10.25;;;;;;;-146.19;100.00;65364.44;10374318;28;20054;-61
2022/10/09 08:11:10;;;;;;;16.88;9.15;;;;;;;-146.19;100.00;65364.44;10392563;28;20103;-60
2022/10/09 08:16:30;;;;;;;19.20;9.43;;;;;;;-146.19;100.00;65364.44;10378701;28;20050;-62
2022/10/09 08:21:50;;;;;;;16.60;9.10;;;;;;;-146.19;100.00;65364.44;10392508;28;20038;-61
2022/10/09 08:27:09;;;;;;;15.60;8.55;;;;;;;-146.19;100.00;65364.44;10391964;28;20095;-61
2022/10/09 08:32:29;;;;;;;16.08;8.73;;;;;;;-146.19;100.00;65364.44;10391746;28;20057;-61
2022/10/09 08:37:48;;;;;;;13.48;7.78;;;;;;;-146.19;100.00;65364.44;10391864;28;20042;-61
2022/10/09 08:43:13;;;;;;;11.75;7.03;;;;;;;-146.19;100.00;65364.44;10378460;28;20108;-61
2022/10/09 08:48:34;;;;;;;12.07;6.85;;;;;;;-146.19;100.00;65364.44;10378470;28;20132;-61
2022/10/09 08:54:02;;;;;;;11.52;6.63;;;;;;;-146.19;100.00;65364.44;10376034;28;20065;-61
2022/10/09 08:59:21;;;;;;;9.98;6.45;;;;;;;-146.19;100.00;65364.44;10361994;28;20093;-60
2022/10/09 09:04:57;;;;;;;10.07;5.93;;;;;;;-146.19;100.00;65364.44;10390675;28;20049;-62
2022/10/09 09:10:58;;;;;;;7.88;5.55;;;;;;;-146.19;100.00;65364.44;10368514;28;20045;-62
2022/10/09 09:16:30;;;;;;;7.43;5.13;;;;;;;-146.19;100.00;65364.44;10384993;28;20053;-61
2022/10/09 09:21:51;;;;;;;6.93;4.93;;;;;;;-146.19;100.00;65364.44;10375283;28;20037;-61
2022/10/09 09:27:15;;;;;;;6.68;4.80;;;;;;;-146.19;100.00;65364.44;10389773;28;20108;-61
2022/10/09 09:32:34;;;;;;;7.20;4.60;;;;;;;-146.19;100.00;65364.44;10389630;28;20046;-62
2022/10/09 09:37:54;;;;;;;5.75;4.05;;;;;;;-146.19;100.00;65364.44;10376300;28;20053;-61
2022/10/09 09:43:20;;;;;;;5.50;3.90;;;;;;;-146.19;100.00;65364.44;10389237;28;20045;-60
2022/10/09 09:48:42;;;;;;;5.78;4.22;;;;;;;-146.19;100.00;65364.44;10388598;28;20041;-62
2022/10/09 09:54:06;;;;;;;6.72;3.92;;;;;;;-146.19;100.00;65364.44;10375361;28;20054;-61
2022/10/09 09:59:28;;;;;;;5.53;3.67;;;;;;;-146.19;100.00;65364.44;10351611;28;20076;-61
2022/10/09 10:04:55;;;;;;;5.25;3.45;;;;;;;-146.19;100.00;65364.44;10387782;28;20043;-61
2022/10/09 10:10:16;;;;;;;5.22;3.60;;;;;;;-146.19;100.00;65364.44;10380591;28;20095;-61
2022/10/09 10:15:36;;;;;;;6.65;3.90;;;;;;;-146.19;100.00;65364.44;10376967;28;20045;-61
2022/10/09 10:21:01;;;;;;;8.02;4.03;;;;;;;-146.19;100.00;65364.44;10388003;28;20046;-61
2022/10/09 10:26:28;;;;;;;9.50;3.83;;;;;;;-146.19;100.00;65364.44;10387294;28;20136;-61
2022/10/09 10:31:50;;;;;;;7.25;3.38;;;;;;;-146.19;100.00;65364.44;10372852;28;20092;-62
2022/10/09 10:37:13;;;;;;;7.57;3.35;;;;;;;-146.19;100.00;65364.44;10372328;28;20456;-61
2022/10/09 10:42:59;;;;;;;6.70;3.58;;;;;;;-146.19;100.00;65364.44;10386861;28;20049;-62
2022/10/09 10:48:25;;;;;;;10.52;4.05;;;;;;;-146.19;100.00;65364.44;10383885;28;20405;-61
2022/10/09 10:54:08;;;;;;;8.93;3.95;;;;;;;-146.19;100.00;65364.44;10367216;28;20042;-61
2022/10/09 10:59:44;;;;;;;7.28;3.25;;;;;;;-146.19;100.00;65364.44;10372690;28;20497;-61
2022/10/09 11:05:15;;;;;;;8.65;3.72;;;;;;;-146.19;100.00;65364.44;10384477;28;20041;-61
2022/10/09 11:10:53;;;;;;;7.07;3.00;;;;;;;-146.19;100.00;65364.44;10381485;28;20072;-60
2022/10/09 11:16:26;;;;;;;8.18;3.35;;;;;;;-146.19;100.00;65364.44;10385320;28;20413;-62
2022/10/09 11:22:10;;;;;;;6.05;3.13;;;;;;;-146.19;100.00;65364.44;10361789;28;20038;-61
2022/10/09 11:27:50;;;;;;;8.00;3.30;;;;;;;-146.19;100.00;65364.44;10385713;28;20052;-61
2022/10/09 11:33:29;;;;;;;6.97;3.10;;;;;;;-146.19;100.00;65364.44;10370974;28;20041;-61
2022/10/09 11:38:52;;;;;;;7.40;3.10;;;;;;;-146.19;100.00;65364.44;10385573;28;20045;-61
2022/10/09 11:44:33;;;;;;;6.30;3.00;;;;;;;-146.19;100.00;65364.44;10368928;28;20040;-61
2022/10/09 11:50:17;;;;;;;5.40;2.90;;;;;;;-146.19;100.00;65364.44;10385441;28;20046;-60
2022/10/09 11:55:37;;;;;;;6.00;2.70;;;;;;;-146.19;100.00;65364.44;10379653;28;20053;-61
2022/10/09 12:01:11;;;;;;;5.00;2.60;;;;;;;-146.19;100.00;65364.44;10365897;28;20455;-61
2022/10/09 12:06:31;;;;;;;5.30;2.70;;;;;;;-146.19;100.00;65364.44;10384836;28;20096;-61
2022/10/09 12:12:07;;;;;;;5.13;2.65;;;;;;;-146.19;100.00;65364.44;10385011;28;20477;-60
2022/10/09 12:17:27;;;;;;;4.53;2.50;;;;;;;-146.19;100.00;65364.44;10356902;28;20049;-61
2022/10/09 12:22:51;;;;;;;4.30;2.10;;;;;;;-146.19;100.00;65364.44;10384847;28;20413;-62
2022/10/09 12:28:19;;;;;;;4.30;2.58;;;;;;;-146.19;100.00;65364.44;10375374;28;20041;-61
2022/10/09 12:33:44;;;;;;;6.40;2.60;;;;;;;-146.19;100.00;65364.44;10392093;28;20041;-61
2022/10/09 12:39:23;;;;;;;5.18;2.58;;;;;;;-146.19;100.00;65364.44;10377199;28;20050;-61
2022/10/09 12:44:43;;;;;;;3.42;1.90;;;;;;;-146.19;100.00;65364.44;10378198;28;20045;-61
2022/10/09 12:50:15;;;;;;;3.72;2.17;;;;;;;-146.19;100.00;65364.44;10391495;28;20038;-61
2022/10/09 12:55:41;;;;;;;5.22;2.03;;;;;;;-146.19;100.00;65364.44;10391531;28;20060;-59
2022/10/09 13:01:04;;;;;;;3.10;1.70;;;;;;;-146.19;100.00;65364.44;10379793;28;20505;-61
2022/10/09 13:06:51;;;;;;;5.05;1.98;;;;;;;-146.19;100.00;65364.44;10381302;28;20049;-61
2022/10/09 13:12:16;;;;;;;3.33;1.80;;;;;;;-146.19;100.00;65364.44;10390450;28;20041;-61
2022/10/09 13:17:38;;;;;;;3.55;1.77;;;;;;;-146.19;100.00;65364.44;10390365;28;20045;-61
2022/10/09 13:23:02;;;;;;;7.95;2.00;;;;;;;-146.19;100.00;65364.44;10390159;28;20069;-61
2022/10/09 13:28:22;;;;;;;4.57;1.90;;;;;;;-146.19;100.00;65364.44;10382062;28;20038;-61
2022/10/09 13:33:42;;;;;;;2.63;1.70;;;;;;;-146.19;100.00;65364.44;10389771;28;20555;-62
2022/10/09 13:39:01;;;;;;;3.47;1.60;;;;;;;-146.19;100.00;65364.44;10365995;28;20041;-61
2022/10/09 13:44:20;;;;;;;4.25;1.83;;;;;;;-146.19;100.00;65364.44;10367729;28;20135;-60
2022/10/09 13:49:39;;;;;;;5.03;1.80;;;;;;;-146.19;100.00;65364.44;10389222;28;20593;-61
2022/10/09 13:54:59;;;;;;;5.07;1.63;;;;;;;-146.19;100.00;65364.44;10389053;28;20481;-61
2022/10/09 14:00:18;;;;;;;3.22;1.50;;;;;;;-146.19;100.00;65364.44;10379106;28;20598;-61
2022/10/09 14:05:39;;;;;;;2.55;1.40;;;;;;;-146.19;100.00;65364.44;10375268;28;20042;-60
2022/10/09 14:10:59;;;;;;;1.77;1.30;;;;;;;-146.19;100.00;65364.44;10373296;28;20065;-61
2022/10/09 14:16:20;;;;;;;3.08;1.60;;;;;;;-146.19;100.00;65364.44;10388047;28;20053;-60
2022/10/09 14:21:39;;;;;;;3.38;1.60;;;;;;;-146.19;100.00;65364.44;10387789;28;20046;-61
2022/10/09 14:27:01;;;;;;;2.40;1.52;;;;;;;-146.19;100.00;65364.44;10374898;28;20074;-61
2022/10/09 14:32:20;;;;;;;2.83;1.25;;;;;;;-146.19;100.00;65364.44;10387616;28;20497;-62
2022/10/09 14:37:39;;;;;;;2.33;1.38;;;;;;;-146.19;100.00;65364.44;10380251;28;20045;-60
2022/10/09 14:42:59;;;;;;;2.65;1.55;;;;;;;-146.19;100.00;65364.44;10390620;28;20046;-61
2022/10/09 14:48:18;;;;;;;2.72;1.30;;;;;;;-146.19;100.00;65364.44;10386843;28;20042;-61
2022/10/09 14:53:38;;;;;;;1.30;1.10;;;;;;;-146.19;100.00;65364.44;10386919;28;20042;-61
2022/10/09 14:58:59;;;;;;;3.38;1.30;;;;;;;-146.19;100.00;65364.44;10381364;28;20115;-60
2022/10/09 15:04:18;;;;;;;1.88;1.40;;;;;;;-146.19;100.00;65364.44;10386420;28;20485;-61
2022/10/09 15:09:38;;;;;;;2.33;1.30;;;;;;;-146.19;100.00;65364.44;10384597;28;20096;-60
2022/10/09 15:14:57;;;;;;;2.58;1.23;;;;;;;-146.19;100.00;65364.44;10373005;28;20065;-60
2022/10/09 15:20:16;;;;;;;2.28;1.23;;;;;;;-146.19;100.00;65364.44;10386110;28;20041;-61
2022/10/09 15:25:35;;;;;;;1.73;1.17;;;;;;;-146.19;100.00;65364.44;10374991;28;20401;-61
2022/10/09 15:30:58;;;;;;;2.05;1.20;;;;;;;-146.19;100.00;65364.44;10379715;28;20050;-58
2022/10/09 15:36:18;;;;;;;1.50;1.30;;;;;;;-146.19;100.00;65364.44;10385455;28;20076;-60
2022/10/09 15:41:39;;;;;;;1.10;1.00;;;;;;;-146.19;100.00;65364.44;10374969;28;20386;-61
2022/10/09 15:46:58;;;;;;;3.13;1.25;;;;;;;-146.19;100.00;65364.44;10385935;28;20045;-60
2022/10/09 15:52:18;;;;;;;1.30;1.10;;;;;;;-146.19;100.00;65364.44;10385300;28;20045;-61
2022/10/09 15:57:37;;;;;;;1.20;0.90;;;;;;;-146.19;100.00;65364.44;10382978;28;20061;-60
2022/10/09 16:02:57;;;;;;;1.25;1.10;;;;;;;-146.19;100.00;65364.44;10390320;28;20045;-59
2022/10/09 16:08:17;;;;;;;2.97;1.30;;;;;;;-146.19;100.00;65364.44;10384147;28;20038;-61
2022/10/09 16:13:39;;;;;;;2.03;1.10;;;;;;;-146.19;100.00;65364.44;10392766;28;20042;-60
2022/10/09 16:19:01;;;;;;;1.52;1.10;;;;;;;-146.19;100.00;65364.44;10379583;28;20042;-61
2022/10/09 16:24:21;;;;;;;1.65;1.00;;;;;;;-146.19;100.00;65364.44;10384018;28;20046;-61
2022/10/09 16:29:40;;;;;;;2.33;1.20;;;;;;;-146.19;100.00;65364.44;10379003;28;20168;-60
2022/10/09 16:35:00;;;;;;;2.20;1.10;;;;;;;-146.19;100.00;65364.44;10391852;28;20052;-60
2022/10/09 16:40:19;;;;;;;2.67;1.30;;;;;;;-146.19;100.00;65364.44;10391487;28;20049;-60
2022/10/09 16:45:39;;;;;;;3.60;1.48;;;;;;;-146.19;100.00;65364.44;10391344;28;20052;-61
2022/10/09 16:50:59;;;;;;;3.20;1.50;;;;;;;-146.19;100.00;65364.44;10377522;28;20078;-61
2022/10/09 16:56:22;;;;;;;3.58;1.27;;;;;;;-146.19;100.00;65364.44;10390807;28;20566;-61
2022/10/09 17:01:44;;;;;;;3.53;1.40;;;;;;;-146.19;100.00;65364.44;10365153;28;20038;-61
2022/10/09 17:07:03;;;;;;;3.10;1.52;;;;;;;-146.19;100.00;65364.44;10390166;28;21030;-60
2022/10/09 17:12:23;;;;;;;3.15;1.58;;;;;;;-146.19;100.00;65364.44;10382230;28;20184;-61
2022/10/09 17:17:42;;;;;;;3.63;1.70;;;;;;;-146.19;100.00;65364.44;10361596;28;20050;-60
2022/10/09 17:23:02;;;;;;;2.97;1.58;;;;;;;-146.19;100.00;65364.44;10384609;28;20501;-60
2022/10/09 17:28:23;;;;;;;3.20;1.90;;;;;;;-146.19;100.00;65364.44;10369026;28;20050;-61
2022/10/09 17:33:44;;;;;;;3.05;1.90;;;;;;;-146.19;100.00;65364.44;10389409;28;20046;-60
2022/10/09 17:39:07;;;;;;;3.28;1.60;;;;;;;-146.19;100.00;65364.44;10379181;28;20077;-60
2022/10/09 17:44:30;;;;;;;2.33;1.50;;;;;;;-146.19;100.00;65364.44;10388664;28;20072;-61
2022/10/09 17:49:50;;;;;;;2.13;1.42;;;;;;;-146.19;100.00;65364.44;10388888;28;20496;-60
2022/10/09 17:55:10;;;;;;;2.15;1.25;;;;;;;-146.19;100.00;65364.44;10401667;28;20057;-61
2022/10/09 18:00:29;;;;;;;2.20;1.33;;;;;;;-146.19;100.00;65364.44;10378215;28;20138;-61
2022/10/09 18:05:50;;;;;;;2.97;1.50;;;;;;;-146.19;100.00;65364.44;10387838;28;20033;-61
2022/10/09 18:11:13;;;;;;;1.77;1.30;;;;;;;-146.19;100.00;65364.44;10383652;28;20052;-61
2022/10/09 18:16:36;;;;;;;2.17;1.45;;;;;;;-146.19;100.00;65364.44;10387700;28;20420;-60
2022/10/09 18:21:56;;;;;;;2.22;1.40;;;;;;;-146.19;100.00;65364.44;10375220;28;20037;-61
2022/10/09 18:27:15;;;;;;;2.38;1.30;;;;;;;-146.19;100.00;65364.44;10377194;28;20050;-60
2022/10/09 18:32:34;;;;;;;2.97;1.50;;;;;;;-146.19;100.00;65364.44;10387441;28;20041;-61
2022/10/09 18:37:53;;;;;;;2.08;1.20;;;;;;;-146.19;100.00;65364.44;10387638;28;20044;-61
2022/10/09 18:43:13;;;;;;;2.53;1.65;;;;;;;-146.19;100.00;65364.44;10386649;28;20497;-60
2022/10/09 18:48:35;;;;;;;3.20;1.60;;;;;;;-146.19;100.00;65364.44;10386461;28;20045;-62
2022/10/09 18:53:59;;;;;;;1.40;1.25;;;;;;;-146.19;100.00;65364.44;10376092;28;20099;-62
2022/10/09 18:59:19;;;;;;;2.35;1.60;;;;;;;-146.19;100.00;65364.44;10358200;28;20053;-61
2022/10/09 19:04:39;;;;;;;3.67;1.60;;;;;;;-146.19;100.00;65364.44;10371075;28;20386;-61
2022/10/09 19:09:58;;;;;;;2.20;1.40;;;;;;;-146.19;100.00;65364.44;10389971;28;20125;-61
2022/10/09 19:15:18;;;;;;;2.25;1.50;;;;;;;-146.19;100.00;65364.44;10381425;28;20172;-60
2022/10/09 19:20:39;;;;;;;2.22;1.27;;;;;;;-146.19;100.00;65364.44;10387739;28;20038;-61
2022/10/09 19:25:59;;;;;;;2.40;1.45;;;;;;;-146.19;100.00;65364.44;10390385;28;20500;-61
2022/10/09 19:31:18;;;;;;;2.10;1.30;;;;;;;-146.19;100.00;65364.44;10377657;28;20084;-61
2022/10/09 19:36:38;;;;;;;2.50;1.40;;;;;;;-146.19;100.00;65364.44;10381419;28;20068;-61
2022/10/09 19:41:57;;;;;;;1.90;1.30;;;;;;;-146.19;100.00;65364.44;10395303;28;20048;-60
2022/10/09 19:47:18;;;;;;;2.17;1.50;;;;;;;-146.19;100.00;65364.44;10370380;28;20050;-61
2022/10/09 19:52:37;;;;;;;2.95;1.33;;;;;;;-146.19;100.00;65364.44;10398923;28;20033;-61
2022/10/09 19:57:57;;;;;;;3.10;1.73;;;;;;;-146.19;100.00;65364.44;10380063;28;20054;-62
2022/10/09 20:03:16;;;;;;;1.52;1.38;;;;;;;-146.19;100.00;65364.44;10380013;28;20045;-61
2022/10/09 20:08:37;;;;;;;1.98;1.30;;;;;;;-146.19;100.00;65364.44;10380681;28;20050;-61
2022/10/09 20:13:57;;;;;;;2.95;1.52;;;;;;;-146.19;100.00;65364.44;10381648;28;20049;-61
2022/10/09 20:19:17;;;;;;;2.10;1.48;;;;;;;-146.19;100.00;65364.44;10392483;28;20096;-61
2022/10/09 20:24:36;;;;;;;1.70;1.48;;;;;;;-146.19;100.00;65364.44;10390520;28;20053;-61
2022/10/09 20:29:55;;;;;;;1.90;1.50;;;;;;;-146.19;100.00;65364.44;10392695;28;20044;-61
2022/10/09 20:35:14;;;;;;;1.88;1.50;;;;;;;-146.19;100.00;65364.44;10378667;28;20057;-61
2022/10/09 20:40:34;;;;;;;2.20;1.30;;;;;;;-146.19;100.00;65364.44;10383763;28;20038;-61
2022/10/09 20:45:53;;;;;;;1.85;1.40;;;;;;;-146.19;100.00;65364.44;10391112;28;20425;-61
2022/10/09 20:51:13;;;;;;;2.05;1.45;;;;;;;-146.19;100.00;65364.44;10396069;28;20049;-61
2022/10/09 20:56:33;;;;;;;2.00;1.40;;;;;;;-146.19;100.00;65364.44;10391300;28;20072;-61
2022/10/09 21:01:53;;;;;;;1.48;1.35;;;;;;;-146.19;100.00;65364.44;10377586;28;20516;-62
2022/10/09 21:07:12;;;;;;;2.35;1.30;;;;;;;-146.19;100.00;65364.44;10382214;28;20042;-61
2022/10/09 21:12:31;;;;;;;2.03;1.40;;;;;;;-146.19;100.00;65364.44;10390417;28;20045;-61
2022/10/09 21:17:51;;;;;;;1.55;1.20;;;;;;;-146.19;100.00;65364.44;10390382;28;20042;-61
2022/10/09 21:23:12;;;;;;;1.70;1.50;;;;;;;-146.19;100.00;65364.44;10394471;28;20091;-61
2022/10/09 21:28:31;;;;;;;1.50;1.30;;;;;;;-146.19;100.00;65364.44;10375274;28;20433;-61
2022/10/09 21:33:51;;;;;;;1.50;1.30;;;;;;;-146.19;100.00;65364.44;10389814;28;20113;-61
2022/10/09 21:39:12;;;;;;;1.58;1.23;;;;;;;-146.19;100.00;65364.44;10397317;28;20046;-62
2022/10/09 21:44:31;;;;;;;1.48;1.20;;;;;;;-146.19;100.00;65364.44;10376180;28;20054;-61
2022/10/09 21:49:51;;;;;;;1.33;1.20;;;;;;;-146.19;100.00;65364.44;10389371;28;20041;-61
2022/10/09 21:55:10;;;;;;;1.65;1.40;;;;;;;-146.19;100.00;65364.44;10401189;28;20045;-61
2022/10/09 22:00:30;;;;;;;1.20;1.10;;;;;;;-146.19;100.00;65364.44;10374466;28;20058;-61
2022/10/09 22:05:49;;;;;;;1.55;1.20;;;;;;;-146.19;100.00;65364.44;10360390;28;20045;-60
2022/10/09 22:11:09;;;;;;;1.63;1.17;;;;;;;-146.19;100.00;65364.44;10393381;28;20485;-61
2022/10/09 22:16:29;;;;;;;1.92;1.10;;;;;;;-146.19;100.00;65364.44;10375164;28;20046;-61
2022/10/09 22:21:49;;;;;;;1.20;1.00;;;;;;;-146.19;100.00;65364.44;10390379;28;20038;-62
2022/10/09 22:27:08;;;;;;;1.52;1.33;;;;;;;-146.19;100.00;65364.44;10374685;28;20050;-61
2022/10/09 22:32:27;;;;;;;1.85;1.23;;;;;;;-146.19;100.00;65364.44;10374184;28;20049;-61
2022/10/09 22:37:46;;;;;;;1.40;1.30;;;;;;;-146.19;100.00;65364.44;10392835;28;20056;-61
2022/10/09 22:43:06;;;;;;;2.63;1.20;;;;;;;-146.19;100.00;65364.44;10387362;28;20042;-61
2022/10/09 22:48:25;;;;;;;2.00;1.40;;;;;;;-146.19;100.00;65364.44;10379866;28;20044;-61
2022/10/09 22:53:45;;;;;;;1.75;1.40;;;;;;;-146.19;100.00;65364.44;10377043;28;20066;-61
2022/10/09 22:59:06;;;;;;;1.45;1.30;;;;;;;-146.19;100.00;65364.44;10380313;28;20057;-61
2022/10/09 23:04:25;;;;;;;2.05;1.20;;;;;;;-146.19;100.00;65364.44;10386337;28;20046;-62
2022/10/09 23:09:45;;;;;;;1.77;1.20;;;;;;;-146.19;100.00;65364.44;10383113;28;20503;-62
2022/10/09 23:15:05;;;;;;;1.15;1.02;;;;;;;-146.19;100.00;65364.44;10358283;28;20058;-61
2022/10/09 23:20:25;;;;;;;1.45;1.00;;;;;;;-146.19;100.00;65364.44;10387026;28;20038;-61
2022/10/09 23:25:44;;;;;;;1.58;1.20;;;;;;;-146.19;100.00;65364.44;10372849;28;20057;-62
2022/10/09 23:31:12;;;;;;;1.40;1.10;;;;;;;-146.19;100.00;65364.44;10385794;28;20092;-62
2022/10/09 23:36:31;;;;;;;1.45;1.25;;;;;;;-146.19;100.00;65364.44;10398495;28;20046;-61
2022/10/09 23:41:50;;;;;;;1.35;1.00;;;;;;;-146.19;100.00;65364.44;10385589;28;20041;-61
2022/10/09 23:47:10;;;;;;;1.75;1.17;;;;;;;-146.19;100.00;65364.44;10376275;28;20038;-61
2022/10/09 23:52:29;;;;;;;1.27;1.15;;;;;;;-146.19;100.00;65364.44;10373136;28;20061;-61
2022/10/09 23:57:49;;;;;;;1.83;1.40;;;;;;;-146.19;100.00;65364.44;10376931;28;20056;-61
